sensor_id;sensor_type;location;lat;lon;timestamp;temperature;humidity
4097;DHT22;2062;50.694;7.246;2023-03-05T00:01:56;5.00;55.20
4097;DHT22;2062;50.694;7.246;2023-03-05T00:04:24;4.90;55.30
4097;DHT22;2062;50.694;7.246;2023-03-05T00:06:51;4.90;55.30
4097;DHT22;2062;50.694;7.246;2023-03-05T00:09:18;5.00;55.30
4097;DHT22;2062;50.694;7.246;2023-03-05T00:11:45;4.90;55.30
4097;DHT22;2062;50.694;7.246;2023-03-05T00:14:12;4.90;55.30
4097;DHT22;2062;50.694;7.246;2023-03-05T00:16:39;4.90;55.30
4097;DHT22;2062;50.694;7.246;2023-03-05T00:19:06;4.90;55.40
4097;DHT22;2062;50.694;7.246;2023-03-05T00:21:36;4.90;55.50
4097;DHT22;2062;50.694;7.246;2023-03-05T00:24:06;4.90;55.60
4097;DHT22;2062;50.694;7.246;2023-03-05T00:26:35;4.90;55.40
4097;DHT22;2062;50.694;7.246;2023-03-05T00:29:04;4.90;55.50
4097;DHT22;2062;50.694;7.246;2023-03-05T00:31:32;4.90;55.40
4097;DHT22;2062;50.694;7.246;2023-03-05T00:34:01;4.90;55.60
4097;DHT22;2062;50.694;7.246;2023-03-05T00:36:28;4.90;55.60
4097;DHT22;2062;50.694;7.246;2023-03-05T00:38:57;4.90;55.60
4097;DHT22;2062;50.694;7.246;2023-03-05T00:41:24;4.90;55.60
4097;DHT22;2062;50.694;7.246;2023-03-05T00:43:51;4.90;55.70
4097;DHT22;2062;50.694;7.246;2023-03-05T00:46:18;4.90;55.60
4097;DHT22;2062;50.694;7.246;2023-03-05T00:48:44;4.90;55.80
4097;DHT22;2062;50.694;7.246;2023-03-05T00:51:11;4.90;55.70
4097;DHT22;2062;50.694;7.246;2023-03-05T00:53:38;4.90;55.50
4097;DHT22;2062;50.694;7.246;2023-03-05T00:56:06;4.80;55.50
4097;DHT22;2062;50.694;7.246;2023-03-05T00:58:33;4.90;55.40
4097;DHT22;2062;50.694;7.246;2023-03-05T01:01:01;4.80;55.40
4097;DHT22;2062;50.694;7.246;2023-03-05T01:03:28;4.80;55.60
4097;DHT22;2062;50.694;7.246;2023-03-05T01:05:56;4.80;55.50
4097;DHT22;2062;50.694;7.246;2023-03-05T01:08:23;4.80;55.50
4097;DHT22;2062;50.694;7.246;2023-03-05T01:10:50;4.80;55.50
4097;DHT22;2062;50.694;7.246;2023-03-05T01:13:18;4.90;55.60
4097;DHT22;2062;50.694;7.246;2023-03-05T01:15:45;4.80;55.60
4097;DHT22;2062;50.694;7.246;2023-03-05T01:18:13;4.80;55.60
4097;DHT22;2062;50.694;7.246;2023-03-05T01:20:40;4.80;55.50
4097;DHT22;2062;50.694;7.246;2023-03-05T01:23:07;4.80;55.60
4097;DHT22;2062;50.694;7.246;2023-03-05T01:25:34;4.70;55.70
4097;DHT22;2062;50.694;7.246;2023-03-05T01:28:00;4.80;55.70
4097;DHT22;2062;50.694;7.246;2023-03-05T01:30:29;4.80;55.80
4097;DHT22;2062;50.694;7.246;2023-03-05T01:32:56;4.80;55.70
4097;DHT22;2062;50.694;7.246;2023-03-05T01:35:24;4.80;55.90
4097;DHT22;2062;50.694;7.246;2023-03-05T01:37:51;4.80;55.80
4097;DHT22;2062;50.694;7.246;2023-03-05T01:40:19;4.70;55.80
4097;DHT22;2062;50.694;7.246;2023-03-05T01:42:48;4.70;55.80
4097;DHT22;2062;50.694;7.246;2023-03-05T01:45:17;4.70;55.70
4097;DHT22;2062;50.694;7.246;2023-03-05T01:47:45;4.70;55.70
4097;DHT22;2062;50.694;7.246;2023-03-05T01:50:15;4.70;55.80
4097;DHT22;2062;50.694;7.246;2023-03-05T01:52:45;4.70;55.80
4097;DHT22;2062;50.694;7.246;2023-03-05T01:55:20;4.70;55.90
4097;DHT22;2062;50.694;7.246;2023-03-05T01:57:52;4.70;55.80
4097;DHT22;2062;50.694;7.246;2023-03-05T02:00:21;4.60;55.70
4097;DHT22;2062;50.694;7.246;2023-03-05T02:02:52;4.60;55.70
4097;DHT22;2062;50.694;7.246;2023-03-05T02:05:23;4.60;55.70
4097;DHT22;2062;50.694;7.246;2023-03-05T02:07:53;4.60;55.70
4097;DHT22;2062;50.694;7.246;2023-03-05T02:10:22;4.60;55.70
4097;DHT22;2062;50.694;7.246;2023-03-05T02:12:51;4.60;55.70
4097;DHT22;2062;50.694;7.246;2023-03-05T02:15:18;4.50;55.70
4097;DHT22;2062;50.694;7.246;2023-03-05T02:17:46;4.60;55.70
4097;DHT22;2062;50.694;7.246;2023-03-05T02:20:17;4.50;55.70
4097;DHT22;2062;50.694;7.246;2023-03-05T02:22:46;4.50;55.70
4097;DHT22;2062;50.694;7.246;2023-03-05T02:25:15;4.60;55.90
4097;DHT22;2062;50.694;7.246;2023-03-05T02:27:48;4.50;55.80
4097;DHT22;2062;50.694;7.246;2023-03-05T02:30:16;4.50;55.70
4097;DHT22;2062;50.694;7.246;2023-03-05T02:32:43;4.50;55.70
4097;DHT22;2062;50.694;7.246;2023-03-05T02:35:09;4.50;55.70
4097;DHT22;2062;50.694;7.246;2023-03-05T02:37:36;4.50;55.80
4097;DHT22;2062;50.694;7.246;2023-03-05T02:40:06;4.50;55.70
4097;DHT22;2062;50.694;7.246;2023-03-05T02:42:33;4.50;55.80
4097;DHT22;2062;50.694;7.246;2023-03-05T02:45:00;4.50;55.90
4097;DHT22;2062;50.694;7.246;2023-03-05T02:47:27;4.50;55.90
4097;DHT22;2062;50.694;7.246;2023-03-05T02:49:55;4.40;55.70
4097;DHT22;2062;50.694;7.246;2023-03-05T02:52:22;4.50;55.80
4097;DHT22;2062;50.694;7.246;2023-03-05T02:54:50;4.40;55.60
4097;DHT22;2062;50.694;7.246;2023-03-05T02:57:18;4.40;55.80
4097;DHT22;2062;50.694;7.246;2023-03-05T02:59:45;4.40;55.60
4097;DHT22;2062;50.694;7.246;2023-03-05T03:02:13;4.40;55.60
4097;DHT22;2062;50.694;7.246;2023-03-05T03:04:41;4.40;55.60
4097;DHT22;2062;50.694;7.246;2023-03-05T03:07:08;4.40;55.60
4097;DHT22;2062;50.694;7.246;2023-03-05T03:09:35;4.40;55.50
4097;DHT22;2062;50.694;7.246;2023-03-05T03:12:04;4.40;55.50
4097;DHT22;2062;50.694;7.246;2023-03-05T03:14:33;4.40;55.70
4097;DHT22;2062;50.694;7.246;2023-03-05T03:17:04;4.40;55.60
4097;DHT22;2062;50.694;7.246;2023-03-05T03:19:31;4.30;56.20
4097;DHT22;2062;50.694;7.246;2023-03-05T03:21:58;4.30;55.50
4097;DHT22;2062;50.694;7.246;2023-03-05T03:24:25;4.30;55.70
4097;DHT22;2062;50.694;7.246;2023-03-05T03:26:52;4.30;55.60
4097;DHT22;2062;50.694;7.246;2023-03-05T03:29:18;4.30;55.60
4097;DHT22;2062;50.694;7.246;2023-03-05T03:31:47;4.30;55.60
4097;DHT22;2062;50.694;7.246;2023-03-05T03:34:15;4.30;55.50
4097;DHT22;2062;50.694;7.246;2023-03-05T03:36:42;4.30;55.50
4097;DHT22;2062;50.694;7.246;2023-03-05T03:39:10;4.30;55.60
4097;DHT22;2062;50.694;7.246;2023-03-05T03:41:40;4.30;55.70
4097;DHT22;2062;50.694;7.246;2023-03-05T03:44:07;4.30;55.60
4097;DHT22;2062;50.694;7.246;2023-03-05T03:46:35;4.30;55.60
4097;DHT22;2062;50.694;7.246;2023-03-05T03:49:03;4.30;55.60
4097;DHT22;2062;50.694;7.246;2023-03-05T03:51:30;4.30;55.60
4097;DHT22;2062;50.694;7.246;2023-03-05T03:53:58;4.30;55.70
4097;DHT22;2062;50.694;7.246;2023-03-05T03:56:25;4.30;55.70
4097;DHT22;2062;50.694;7.246;2023-03-05T03:58:52;4.20;55.60
4097;DHT22;2062;50.694;7.246;2023-03-05T04:01:20;4.30;55.70
4097;DHT22;2062;50.694;7.246;2023-03-05T04:03:47;4.20;55.80
4097;DHT22;2062;50.694;7.246;2023-03-05T04:06:15;4.20;55.60
4097;DHT22;2062;50.694;7.246;2023-03-05T04:08:42;4.20;55.70
4097;DHT22;2062;50.694;7.246;2023-03-05T04:11:09;4.20;55.70
4097;DHT22;2062;50.694;7.246;2023-03-05T04:13:36;4.20;55.70
4097;DHT22;2062;50.694;7.246;2023-03-05T04:16:03;4.20;55.70
4097;DHT22;2062;50.694;7.246;2023-03-05T04:18:30;4.20;55.60
4097;DHT22;2062;50.694;7.246;2023-03-05T04:20:57;4.20;55.60
4097;DHT22;2062;50.694;7.246;2023-03-05T04:23:25;4.20;55.60
4097;DHT22;2062;50.694;7.246;2023-03-05T04:25:52;4.20;55.60
4097;DHT22;2062;50.694;7.246;2023-03-05T04:28:19;4.20;55.70
4097;DHT22;2062;50.694;7.246;2023-03-05T04:30:46;4.10;55.60
4097;DHT22;2062;50.694;7.246;2023-03-05T04:33:13;4.20;55.60
4097;DHT22;2062;50.694;7.246;2023-03-05T04:35:40;4.10;55.60
4097;DHT22;2062;50.694;7.246;2023-03-05T04:38:08;4.10;55.60
4097;DHT22;2062;50.694;7.246;2023-03-05T04:40:36;4.10;55.60
4097;DHT22;2062;50.694;7.246;2023-03-05T04:43:03;4.10;55.60
4097;DHT22;2062;50.694;7.246;2023-03-05T04:45:30;4.10;55.70
4097;DHT22;2062;50.694;7.246;2023-03-05T04:47:57;4.10;55.70
4097;DHT22;2062;50.694;7.246;2023-03-05T04:50:24;4.10;55.60
4097;DHT22;2062;50.694;7.246;2023-03-05T04:52:51;4.10;55.70
4097;DHT22;2062;50.694;7.246;2023-03-05T04:55:19;4.10;55.70
4097;DHT22;2062;50.694;7.246;2023-03-05T04:57:47;4.10;55.70
4097;DHT22;2062;50.694;7.246;2023-03-05T05:00:15;4.10;55.70
4097;DHT22;2062;50.694;7.246;2023-03-05T05:02:44;4.10;55.70
4097;DHT22;2062;50.694;7.246;2023-03-05T05:05:12;4.10;55.70
4097;DHT22;2062;50.694;7.246;2023-03-05T05:07:40;4.00;55.70
4097;DHT22;2062;50.694;7.246;2023-03-05T05:10:08;4.00;55.60
4097;DHT22;2062;50.694;7.246;2023-03-05T05:12:35;4.00;55.50
4097;DHT22;2062;50.694;7.246;2023-03-05T05:15:05;4.00;55.60
4097;DHT22;2062;50.694;7.246;2023-03-05T05:17:33;4.00;55.50
4097;DHT22;2062;50.694;7.246;2023-03-05T05:20:00;4.00;55.60
4097;DHT22;2062;50.694;7.246;2023-03-05T05:22:29;4.00;55.50
4097;DHT22;2062;50.694;7.246;2023-03-05T05:24:56;4.00;55.50
4097;DHT22;2062;50.694;7.246;2023-03-05T05:27:23;4.00;55.40
4097;DHT22;2062;50.694;7.246;2023-03-05T05:29:50;4.00;55.40
4097;DHT22;2062;50.694;7.246;2023-03-05T05:32:20;4.00;55.50
4097;DHT22;2062;50.694;7.246;2023-03-05T05:34:48;4.00;55.50
4097;DHT22;2062;50.694;7.246;2023-03-05T05:37:15;4.00;55.40
4097;DHT22;2062;50.694;7.246;2023-03-05T05:39:42;4.00;55.40
4097;DHT22;2062;50.694;7.246;2023-03-05T05:42:14;4.10;55.50
4097;DHT22;2062;50.694;7.246;2023-03-05T05:44:42;4.00;55.40
4097;DHT22;2062;50.694;7.246;2023-03-05T05:47:09;3.90;55.40
4097;DHT22;2062;50.694;7.246;2023-03-05T05:49:37;3.90;55.40
4097;DHT22;2062;50.694;7.246;2023-03-05T05:52:05;3.90;55.30
4097;DHT22;2062;50.694;7.246;2023-03-05T05:54:32;3.90;55.20
4097;DHT22;2062;50.694;7.246;2023-03-05T05:56:59;3.90;55.20
4097;DHT22;2062;50.694;7.246;2023-03-05T05:59:26;3.90;55.30
4097;DHT22;2062;50.694;7.246;2023-03-05T06:01:53;3.90;55.30
4097;DHT22;2062;50.694;7.246;2023-03-05T06:04:20;3.90;55.30
4097;DHT22;2062;50.694;7.246;2023-03-05T06:06:48;4.00;55.30
4097;DHT22;2062;50.694;7.246;2023-03-05T06:09:15;3.90;55.30
4097;DHT22;2062;50.694;7.246;2023-03-05T06:11:41;3.90;55.30
4097;DHT22;2062;50.694;7.246;2023-03-05T06:14:10;3.90;55.30
4097;DHT22;2062;50.694;7.246;2023-03-05T06:16:37;3.90;55.30
4097;DHT22;2062;50.694;7.246;2023-03-05T06:19:07;3.90;55.30
4097;DHT22;2062;50.694;7.246;2023-03-05T06:21:34;3.90;55.30
4097;DHT22;2062;50.694;7.246;2023-03-05T06:24:03;3.90;55.30
4097;DHT22;2062;50.694;7.246;2023-03-05T06:26:30;3.90;55.50
4097;DHT22;2062;50.694;7.246;2023-03-05T06:28:58;3.90;55.40
4097;DHT22;2062;50.694;7.246;2023-03-05T06:31:26;3.90;55.50
4097;DHT22;2062;50.694;7.246;2023-03-05T06:33:55;3.90;55.50
4097;DHT22;2062;50.694;7.246;2023-03-05T06:36:24;3.90;55.50
4097;DHT22;2062;50.694;7.246;2023-03-05T06:38:52;3.90;55.50
4097;DHT22;2062;50.694;7.246;2023-03-05T06:41:24;3.90;55.50
4097;DHT22;2062;50.694;7.246;2023-03-05T06:43:51;3.80;55.40
4097;DHT22;2062;50.694;7.246;2023-03-05T06:46:21;3.80;55.40
4097;DHT22;2062;50.694;7.246;2023-03-05T06:48:49;3.80;55.50
4097;DHT22;2062;50.694;7.246;2023-03-05T06:51:18;3.90;55.60
4097;DHT22;2062;50.694;7.246;2023-03-05T06:53:46;3.80;55.70
4097;DHT22;2062;50.694;7.246;2023-03-05T06:56:14;3.80;55.60
4097;DHT22;2062;50.694;7.246;2023-03-05T06:58:43;3.80;55.60
4097;DHT22;2062;50.694;7.246;2023-03-05T07:01:10;3.80;55.60
4097;DHT22;2062;50.694;7.246;2023-03-05T07:03:37;3.80;55.80
4097;DHT22;2062;50.694;7.246;2023-03-05T07:06:06;3.80;55.90
4097;DHT22;2062;50.694;7.246;2023-03-05T07:08:34;3.90;56.00
4097;DHT22;2062;50.694;7.246;2023-03-05T07:11:01;3.80;55.90
4097;DHT22;2062;50.694;7.246;2023-03-05T07:13:28;3.80;55.80
4097;DHT22;2062;50.694;7.246;2023-03-05T07:15:56;3.90;56.10
4097;DHT22;2062;50.694;7.246;2023-03-05T07:18:23;3.80;55.90
4097;DHT22;2062;50.694;7.246;2023-03-05T07:20:50;3.80;55.90
4097;DHT22;2062;50.694;7.246;2023-03-05T07:23:17;3.80;56.00
4097;DHT22;2062;50.694;7.246;2023-03-05T07:25:47;3.90;56.10
4097;DHT22;2062;50.694;7.246;2023-03-05T07:28:13;3.90;56.00
4097;DHT22;2062;50.694;7.246;2023-03-05T07:30:40;3.90;56.10
4097;DHT22;2062;50.694;7.246;2023-03-05T07:33:08;3.90;55.80
4097;DHT22;2062;50.694;7.246;2023-03-05T07:35:39;3.90;55.90
4097;DHT22;2062;50.694;7.246;2023-03-05T07:38:06;3.90;55.90
4097;DHT22;2062;50.694;7.246;2023-03-05T07:40:33;3.90;55.90
4097;DHT22;2062;50.694;7.246;2023-03-05T07:43:00;3.90;55.90
4097;DHT22;2062;50.694;7.246;2023-03-05T07:45:27;3.90;56.00
4097;DHT22;2062;50.694;7.246;2023-03-05T07:47:54;3.90;56.10
4097;DHT22;2062;50.694;7.246;2023-03-05T07:50:22;4.00;56.60
4097;DHT22;2062;50.694;7.246;2023-03-05T07:52:49;4.00;56.00
4097;DHT22;2062;50.694;7.246;2023-03-05T07:55:17;3.90;56.10
4097;DHT22;2062;50.694;7.246;2023-03-05T07:57:47;4.00;56.20
4097;DHT22;2062;50.694;7.246;2023-03-05T08:00:14;4.00;56.30
4097;DHT22;2062;50.694;7.246;2023-03-05T08:02:41;4.00;56.10
4097;DHT22;2062;50.694;7.246;2023-03-05T08:05:08;4.00;56.20
4097;DHT22;2062;50.694;7.246;2023-03-05T08:07:36;4.00;57.00
4097;DHT22;2062;50.694;7.246;2023-03-05T08:10:05;4.00;56.30
4097;DHT22;2062;50.694;7.246;2023-03-05T08:12:32;4.10;56.40
4097;DHT22;2062;50.694;7.246;2023-03-05T08:14:59;4.00;56.30
4097;DHT22;2062;50.694;7.246;2023-03-05T08:17:26;4.10;56.60
4097;DHT22;2062;50.694;7.246;2023-03-05T08:19:53;4.10;56.60
4097;DHT22;2062;50.694;7.246;2023-03-05T08:22:22;4.10;56.60
4097;DHT22;2062;50.694;7.246;2023-03-05T08:24:50;4.20;56.50
4097;DHT22;2062;50.694;7.246;2023-03-05T08:27:17;4.20;56.70
4097;DHT22;2062;50.694;7.246;2023-03-05T08:29:44;4.30;57.00
4097;DHT22;2062;50.694;7.246;2023-03-05T08:32:11;4.30;56.80
4097;DHT22;2062;50.694;7.246;2023-03-05T08:34:38;4.40;56.80
4097;DHT22;2062;50.694;7.246;2023-03-05T08:37:05;4.40;56.70
4097;DHT22;2062;50.694;7.246;2023-03-05T08:39:33;4.50;56.90
4097;DHT22;2062;50.694;7.246;2023-03-05T08:42:02;4.60;56.90
4097;DHT22;2062;50.694;7.246;2023-03-05T08:44:29;4.60;56.90
4097;DHT22;2062;50.694;7.246;2023-03-05T08:46:56;4.70;57.10
4097;DHT22;2062;50.694;7.246;2023-03-05T08:49:23;4.80;57.10
4097;DHT22;2062;50.694;7.246;2023-03-05T08:51:51;4.90;57.00
4097;DHT22;2062;50.694;7.246;2023-03-05T08:54:18;5.00;57.10
4097;DHT22;2062;50.694;7.246;2023-03-05T08:56:44;5.10;57.10
4097;DHT22;2062;50.694;7.246;2023-03-05T08:59:13;5.20;57.10
4097;DHT22;2062;50.694;7.246;2023-03-05T09:01:40;5.20;57.00
4097;DHT22;2062;50.694;7.246;2023-03-05T09:04:08;5.30;57.10
4097;DHT22;2062;50.694;7.246;2023-03-05T09:06:35;5.40;56.90
4097;DHT22;2062;50.694;7.246;2023-03-05T09:09:05;5.40;56.80
4097;DHT22;2062;50.694;7.246;2023-03-05T09:11:33;5.40;56.60
4097;DHT22;2062;50.694;7.246;2023-03-05T09:14:01;5.50;56.70
4097;DHT22;2062;50.694;7.246;2023-03-05T09:16:29;5.50;56.70
4097;DHT22;2062;50.694;7.246;2023-03-05T09:18:57;5.50;56.60
4097;DHT22;2062;50.694;7.246;2023-03-05T09:21:24;5.60;56.50
4097;DHT22;2062;50.694;7.246;2023-03-05T09:23:51;5.60;56.40
4097;DHT22;2062;50.694;7.246;2023-03-05T09:26:24;5.60;56.30
4097;DHT22;2062;50.694;7.246;2023-03-05T09:28:50;5.60;56.20
4097;DHT22;2062;50.694;7.246;2023-03-05T09:31:17;5.60;56.10
4097;DHT22;2062;50.694;7.246;2023-03-05T09:33:46;5.60;56.10
4097;DHT22;2062;50.694;7.246;2023-03-05T09:36:18;5.60;56.00
4097;DHT22;2062;50.694;7.246;2023-03-05T09:38:45;5.70;55.90
4097;DHT22;2062;50.694;7.246;2023-03-05T09:41:16;5.70;55.90
4097;DHT22;2062;50.694;7.246;2023-03-05T09:43:53;5.70;55.90
4097;DHT22;2062;50.694;7.246;2023-03-05T09:46:30;5.60;55.70
4097;DHT22;2062;50.694;7.246;2023-03-05T09:49:13;5.70;55.80
4097;DHT22;2062;50.694;7.246;2023-03-05T09:51:43;5.70;55.70
4097;DHT22;2062;50.694;7.246;2023-03-05T09:54:12;5.70;55.70
4097;DHT22;2062;50.694;7.246;2023-03-05T09:56:44;5.80;55.70
4097;DHT22;2062;50.694;7.246;2023-03-05T09:59:24;5.70;55.70
4097;DHT22;2062;50.694;7.246;2023-03-05T10:01:58;5.80;55.60
4097;DHT22;2062;50.694;7.246;2023-03-05T10:04:30;5.70;55.50
4097;DHT22;2062;50.694;7.246;2023-03-05T10:07:10;5.70;55.40
4097;DHT22;2062;50.694;7.246;2023-03-05T10:09:43;5.70;55.40
4097;DHT22;2062;50.694;7.246;2023-03-05T10:12:17;5.70;55.30
4097;DHT22;2062;50.694;7.246;2023-03-05T10:14:47;5.70;55.40
4097;DHT22;2062;50.694;7.246;2023-03-05T10:17:43;5.80;55.30
4097;DHT22;2062;50.694;7.246;2023-03-05T10:20:32;5.80;55.30
4097;DHT22;2062;50.694;7.246;2023-03-05T10:23:20;5.80;55.20
4097;DHT22;2062;50.694;7.246;2023-03-05T10:25:58;5.80;55.10
4097;DHT22;2062;50.694;7.246;2023-03-05T10:28:34;5.80;55.00
4097;DHT22;2062;50.694;7.246;2023-03-05T10:34:17;5.80;55.10
4097;DHT22;2062;50.694;7.246;2023-03-05T10:37:11;5.90;55.10
4097;DHT22;2062;50.694;7.246;2023-03-05T10:39:55;5.80;55.10
4097;DHT22;2062;50.694;7.246;2023-03-05T10:42:29;5.80;55.10
4097;DHT22;2062;50.694;7.246;2023-03-05T10:45:04;5.90;55.30
4097;DHT22;2062;50.694;7.246;2023-03-05T10:47:40;5.90;55.30
4097;DHT22;2062;50.694;7.246;2023-03-05T10:50:15;6.00;55.40
4097;DHT22;2062;50.694;7.246;2023-03-05T10:52:46;6.00;55.50
4097;DHT22;2062;50.694;7.246;2023-03-05T10:55:18;6.10;55.50
4097;DHT22;2062;50.694;7.246;2023-03-05T10:57:45;6.20;55.60
4097;DHT22;2062;50.694;7.246;2023-03-05T11:00:19;6.30;55.70
4097;DHT22;2062;50.694;7.246;2023-03-05T11:02:58;6.40;55.50
4097;DHT22;2062;50.694;7.246;2023-03-05T11:05:39;6.50;55.40
4097;DHT22;2062;50.694;7.246;2023-03-05T11:08:24;6.60;55.20
4097;DHT22;2062;50.694;7.246;2023-03-05T11:11:18;6.60;54.90
4097;DHT22;2062;50.694;7.246;2023-03-05T11:13:56;6.60;54.70
4097;DHT22;2062;50.694;7.246;2023-03-05T11:16:25;6.60;54.40
4097;DHT22;2062;50.694;7.246;2023-03-05T11:19:17;6.60;54.40
4097;DHT22;2062;50.694;7.246;2023-03-05T11:22:05;6.60;53.90
4097;DHT22;2062;50.694;7.246;2023-03-05T11:24:33;6.60;54.10
4097;DHT22;2062;50.694;7.246;2023-03-05T11:27:00;6.60;54.10
4097;DHT22;2062;50.694;7.246;2023-03-05T11:29:29;6.50;54.00
4097;DHT22;2062;50.694;7.246;2023-03-05T11:32:14;6.50;53.90
4097;DHT22;2062;50.694;7.246;2023-03-05T11:34:41;6.50;53.90
4097;DHT22;2062;50.694;7.246;2023-03-05T11:37:21;6.40;53.80
4097;DHT22;2062;50.694;7.246;2023-03-05T11:40:17;6.40;53.60
4097;DHT22;2062;50.694;7.246;2023-03-05T11:42:48;6.30;53.60
4097;DHT22;2062;50.694;7.246;2023-03-05T11:45:17;6.30;53.50
4097;DHT22;2062;50.694;7.246;2023-03-05T11:47:47;6.30;53.60
4097;DHT22;2062;50.694;7.246;2023-03-05T11:50:21;6.30;53.50
4097;DHT22;2062;50.694;7.246;2023-03-05T11:52:50;6.20;53.30
4097;DHT22;2062;50.694;7.246;2023-03-05T11:55:21;6.20;53.20
4097;DHT22;2062;50.694;7.246;2023-03-05T11:57:59;6.20;53.10
4097;DHT22;2062;50.694;7.246;2023-03-05T12:00:31;6.20;53.10
4097;DHT22;2062;50.694;7.246;2023-03-05T12:03:04;6.10;52.90
4097;DHT22;2062;50.694;7.246;2023-03-05T12:05:34;6.00;52.80
4097;DHT22;2062;50.694;7.246;2023-03-05T12:08:03;6.00;52.80
4097;DHT22;2062;50.694;7.246;2023-03-05T12:10:31;6.00;52.80
4097;DHT22;2062;50.694;7.246;2023-03-05T12:13:01;6.00;53.00
4097;DHT22;2062;50.694;7.246;2023-03-05T12:15:43;5.90;53.20
4097;DHT22;2062;50.694;7.246;2023-03-05T12:18:28;5.90;53.20
4097;DHT22;2062;50.694;7.246;2023-03-05T12:21:03;5.90;53.30
4097;DHT22;2062;50.694;7.246;2023-03-05T12:23:47;5.90;53.30
4097;DHT22;2062;50.694;7.246;2023-03-05T12:26:16;5.90;53.40
4097;DHT22;2062;50.694;7.246;2023-03-05T12:28:54;5.90;53.40
4097;DHT22;2062;50.694;7.246;2023-03-05T12:31:36;5.80;53.50
4097;DHT22;2062;50.694;7.246;2023-03-05T12:34:45;5.70;53.70
4097;DHT22;2062;50.694;7.246;2023-03-05T12:37:14;5.70;54.10
4097;DHT22;2062;50.694;7.246;2023-03-05T12:40:00;5.70;54.30
4097;DHT22;2062;50.694;7.246;2023-03-05T12:42:54;5.70;54.40
4097;DHT22;2062;50.694;7.246;2023-03-05T12:45:27;5.80;54.50
4097;DHT22;2062;50.694;7.246;2023-03-05T12:50:58;5.90;54.80
4097;DHT22;2062;50.694;7.246;2023-03-05T12:53:25;5.90;54.80
4097;DHT22;2062;50.694;7.246;2023-03-05T12:55:56;6.00;54.70
4097;DHT22;2062;50.694;7.246;2023-03-05T12:58:33;6.00;54.70
4097;DHT22;2062;50.694;7.246;2023-03-05T13:01:05;6.00;54.60
4097;DHT22;2062;50.694;7.246;2023-03-05T13:03:36;6.00;55.10
4097;DHT22;2062;50.694;7.246;2023-03-05T13:06:03;6.10;54.50
4097;DHT22;2062;50.694;7.246;2023-03-05T13:08:33;6.10;54.50
4097;DHT22;2062;50.694;7.246;2023-03-05T13:11:03;6.10;54.50
4097;DHT22;2062;50.694;7.246;2023-03-05T13:13:35;6.20;54.60
4097;DHT22;2062;50.694;7.246;2023-03-05T13:16:03;6.20;54.50
4097;DHT22;2062;50.694;7.246;2023-03-05T13:18:32;6.20;55.30
4097;DHT22;2062;50.694;7.246;2023-03-05T13:21:01;6.30;54.70
4097;DHT22;2062;50.694;7.246;2023-03-05T13:23:30;6.30;54.70
4097;DHT22;2062;50.694;7.246;2023-03-05T13:26:03;6.30;54.60
4097;DHT22;2062;50.694;7.246;2023-03-05T13:28:36;6.30;54.70
4097;DHT22;2062;50.694;7.246;2023-03-05T13:31:12;6.40;54.40
4097;DHT22;2062;50.694;7.246;2023-03-05T13:33:40;6.50;54.60
4097;DHT22;2062;50.694;7.246;2023-03-05T13:36:17;6.40;54.40
4097;DHT22;2062;50.694;7.246;2023-03-05T13:38:45;6.40;54.40
4097;DHT22;2062;50.694;7.246;2023-03-05T13:41:23;6.40;54.40
4097;DHT22;2062;50.694;7.246;2023-03-05T13:43:53;6.40;54.30
4097;DHT22;2062;50.694;7.246;2023-03-05T13:46:25;6.50;54.30
4097;DHT22;2062;50.694;7.246;2023-03-05T13:48:52;6.50;54.20
4097;DHT22;2062;50.694;7.246;2023-03-05T13:51:19;6.50;54.20
4097;DHT22;2062;50.694;7.246;2023-03-05T13:53:47;6.50;54.00
4097;DHT22;2062;50.694;7.246;2023-03-05T13:56:17;6.40;54.00
4097;DHT22;2062;50.694;7.246;2023-03-05T13:58:50;6.50;53.90
4097;DHT22;2062;50.694;7.246;2023-03-05T14:01:25;6.50;53.80
4097;DHT22;2062;50.694;7.246;2023-03-05T14:03:55;6.40;53.70
4097;DHT22;2062;50.694;7.246;2023-03-05T14:06:24;6.40;53.60
4097;DHT22;2062;50.694;7.246;2023-03-05T14:08:54;6.40;53.50
4097;DHT22;2062;50.694;7.246;2023-03-05T14:11:23;6.40;53.70
4097;DHT22;2062;50.694;7.246;2023-03-05T14:13:59;6.40;53.60
4097;DHT22;2062;50.694;7.246;2023-03-05T14:16:29;6.40;53.70
4097;DHT22;2062;50.694;7.246;2023-03-05T14:18:59;6.40;53.80
4097;DHT22;2062;50.694;7.246;2023-03-05T14:21:42;6.30;53.80
4097;DHT22;2062;50.694;7.246;2023-03-05T14:24:17;6.40;53.80
4097;DHT22;2062;50.694;7.246;2023-03-05T14:26:48;6.30;53.80
4097;DHT22;2062;50.694;7.246;2023-03-05T14:29:18;6.30;53.70
4097;DHT22;2062;50.694;7.246;2023-03-05T14:31:49;6.40;53.60
4097;DHT22;2062;50.694;7.246;2023-03-05T14:34:25;6.30;53.60
4097;DHT22;2062;50.694;7.246;2023-03-05T14:36:56;6.30;53.40
4097;DHT22;2062;50.694;7.246;2023-03-05T14:39:29;6.30;53.40
4097;DHT22;2062;50.694;7.246;2023-03-05T14:42:24;6.30;53.50
4097;DHT22;2062;50.694;7.246;2023-03-05T14:44:52;6.30;53.50
4097;DHT22;2062;50.694;7.246;2023-03-05T14:47:21;6.30;53.50
4097;DHT22;2062;50.694;7.246;2023-03-05T14:49:48;6.30;53.70
4097;DHT22;2062;50.694;7.246;2023-03-05T14:52:16;6.30;53.70
4097;DHT22;2062;50.694;7.246;2023-03-05T14:54:44;6.30;53.80
4097;DHT22;2062;50.694;7.246;2023-03-05T14:57:14;6.30;53.80
4097;DHT22;2062;50.694;7.246;2023-03-05T14:59:42;6.30;53.80
4097;DHT22;2062;50.694;7.246;2023-03-05T15:02:14;6.30;53.80
4097;DHT22;2062;50.694;7.246;2023-03-05T15:04:42;6.30;53.60
4097;DHT22;2062;50.694;7.246;2023-03-05T15:07:16;6.30;53.60
4097;DHT22;2062;50.694;7.246;2023-03-05T15:09:43;6.30;53.70
4097;DHT22;2062;50.694;7.246;2023-03-05T15:12:11;6.30;53.70
4097;DHT22;2062;50.694;7.246;2023-03-05T15:14:38;6.30;53.80
4097;DHT22;2062;50.694;7.246;2023-03-05T15:17:13;6.30;53.70
4097;DHT22;2062;50.694;7.246;2023-03-05T15:19:43;6.30;53.80
4097;DHT22;2062;50.694;7.246;2023-03-05T15:22:11;6.30;53.80
4097;DHT22;2062;50.694;7.246;2023-03-05T15:24:38;6.30;53.80
4097;DHT22;2062;50.694;7.246;2023-03-05T15:27:05;6.30;53.70
4097;DHT22;2062;50.694;7.246;2023-03-05T15:29:33;6.30;53.70
4097;DHT22;2062;50.694;7.246;2023-03-05T15:32:01;6.20;53.70
4097;DHT22;2062;50.694;7.246;2023-03-05T15:34:29;6.20;53.70
4097;DHT22;2062;50.694;7.246;2023-03-05T15:37:02;6.20;53.70
4097;DHT22;2062;50.694;7.246;2023-03-05T15:39:29;6.20;53.70
4097;DHT22;2062;50.694;7.246;2023-03-05T15:41:56;6.20;53.70
4097;DHT22;2062;50.694;7.246;2023-03-05T15:44:24;6.20;53.60
4097;DHT22;2062;50.694;7.246;2023-03-05T15:46:51;6.20;53.70
4097;DHT22;2062;50.694;7.246;2023-03-05T15:49:19;6.20;53.90
4097;DHT22;2062;50.694;7.246;2023-03-05T15:51:47;6.10;53.90
4097;DHT22;2062;50.694;7.246;2023-03-05T15:54:15;6.10;53.80
4097;DHT22;2062;50.694;7.246;2023-03-05T15:56:42;6.10;53.90
4097;DHT22;2062;50.694;7.246;2023-03-05T15:59:08;6.10;53.80
4097;DHT22;2062;50.694;7.246;2023-03-05T16:01:36;6.10;53.90
4097;DHT22;2062;50.694;7.246;2023-03-05T16:04:03;6.00;53.90
4097;DHT22;2062;50.694;7.246;2023-03-05T16:06:31;6.10;54.10
4097;DHT22;2062;50.694;7.246;2023-03-05T16:09:01;6.00;54.00
4097;DHT22;2062;50.694;7.246;2023-03-05T16:11:30;6.00;53.90
4097;DHT22;2062;50.694;7.246;2023-03-05T16:13:58;6.00;53.90
4097;DHT22;2062;50.694;7.246;2023-03-05T16:16:26;6.00;53.80
4097;DHT22;2062;50.694;7.246;2023-03-05T16:18:54;6.00;53.70
4097;DHT22;2062;50.694;7.246;2023-03-05T16:21:22;6.00;53.80
4097;DHT22;2062;50.694;7.246;2023-03-05T16:23:49;5.90;54.00
4097;DHT22;2062;50.694;7.246;2023-03-05T16:26:16;5.90;54.00
4097;DHT22;2062;50.694;7.246;2023-03-05T16:28:44;5.80;53.90
4097;DHT22;2062;50.694;7.246;2023-03-05T16:31:11;5.80;54.10
4097;DHT22;2062;50.694;7.246;2023-03-05T16:33:38;5.80;54.00
4097;DHT22;2062;50.694;7.246;2023-03-05T16:36:24;5.70;54.10
4097;DHT22;2062;50.694;7.246;2023-03-05T16:38:53;5.70;54.00
4097;DHT22;2062;50.694;7.246;2023-03-05T16:41:21;5.70;53.90